createdAt,value
2019-02-01T00:00:38.117Z,32.86
2019-02-01T00:01:38.064Z,32.67
2019-02-01T00:02:38.016Z,32.95
2019-02-01T00:03:37.965Z,32.86
2019-02-01T00:04:37.912Z,33.14
2019-02-01T00:05:37.862Z,33.14
2019-02-01T00:06:37.811Z,33.14
2019-02-01T00:07:37.760Z,33.04
2019-02-01T00:08:37.709Z,33.14
2019-02-01T00:09:37.659Z,33.04
2019-02-01T00:10:37.610Z,33.14
2019-02-01T00:11:37.607Z,33.14
2019-02-01T00:12:37.507Z,33.14
2019-02-01T00:13:37.458Z,33.04
2019-02-01T00:14:37.406Z,33.14
2019-02-01T00:15:37.357Z,33.24
2019-02-01T00:16:37.305Z,33.24
2019-02-01T00:17:37.255Z,33.04
2019-02-01T00:18:37.204Z,32.67
2019-02-01T00:19:37.152Z,33.04
2019-02-01T00:20:37.101Z,32.57
2019-02-01T00:21:37.051Z,32.67
2019-02-01T00:22:37.001Z,32.76
2019-02-01T00:23:36.950Z,33.14
2019-02-01T00:24:36.901Z,33.14
2019-02-01T00:25:36.850Z,33.24
2019-02-01T00:26:36.801Z,33.04
2019-02-01T00:27:36.747Z,33.04
2019-02-01T00:28:36.697Z,32.95
2019-02-01T00:29:36.648Z,33.04
2019-02-01T00:30:36.599Z,32.95
2019-02-01T00:31:36.544Z,32.76
2019-02-01T00:32:36.497Z,32.67
2019-02-01T00:33:36.444Z,32.67
2019-02-01T00:34:36.397Z,32.47
2019-02-01T00:35:36.342Z,32.67
2019-02-01T00:36:36.293Z,32.86
2019-02-01T00:37:36.241Z,32.76
2019-02-01T00:38:36.190Z,32.95
2019-02-01T00:39:36.140Z,32.67
2019-02-01T00:40:36.089Z,32.57
2019-02-01T00:41:36.039Z,32.57
2019-02-01T00:42:35.989Z,32.47
2019-02-01T00:43:37.893Z,32.38
2019-02-01T00:44:35.887Z,32.38
2019-02-01T00:45:35.835Z,32.47
2019-02-01T00:46:35.786Z,32.47
2019-02-01T00:47:35.734Z,32.38
2019-02-01T00:48:35.684Z,32.57
2019-02-01T00:49:35.634Z,32.57
2019-02-01T00:50:35.585Z,32.57
2019-02-01T00:51:35.555Z,32.57
2019-02-01T00:52:35.483Z,32.38
2019-02-01T00:53:35.439Z,32.47
2019-02-01T00:54:35.382Z,32.47
2019-02-01T00:55:35.330Z,32.57
2019-02-01T00:56:35.280Z,32.47
2019-02-01T00:57:35.229Z,32.38
2019-02-01T00:58:35.177Z,32.38
2019-02-01T00:59:35.127Z,32.47
2019-02-01T01:00:35.088Z,32.47
2019-02-01T01:01:35.027Z,32.38
2019-02-01T01:02:34.982Z,32.47
2019-02-01T01:03:34.928Z,32.47
2019-02-01T01:04:34.874Z,32.28
2019-02-01T01:05:34.928Z,32.47
2019-02-01T01:06:34.774Z,32.47
2019-02-01T01:07:34.722Z,32.38
2019-02-01T01:08:34.671Z,32.57
2019-02-01T01:09:34.623Z,32.67
2019-02-01T01:10:34.621Z,32.76
2019-02-01T01:11:34.518Z,32.67
2019-02-01T01:12:34.469Z,32.57
2019-02-01T01:13:34.421Z,32.67
2019-02-01T01:14:34.389Z,32.67
2019-02-01T01:15:34.317Z,32.67
2019-02-01T01:16:34.267Z,32.76
2019-02-01T01:17:34.215Z,32.67
2019-02-01T01:18:34.166Z,32.47
2019-02-01T01:19:34.114Z,32.67
2019-02-01T01:20:34.064Z,32.67
2019-02-01T01:21:34.014Z,32.67
2019-02-01T01:22:33.963Z,32.67
2019-02-01T01:23:33.913Z,32.67
2019-02-01T01:24:33.891Z,32.67
2019-02-01T01:25:33.812Z,32.67
2019-02-01T01:26:33.761Z,32.57
2019-02-01T01:27:33.708Z,32.47
2019-02-01T01:28:33.658Z,32.57
2019-02-01T01:29:33.609Z,32.67
2019-02-01T01:30:33.607Z,32.57
2019-02-01T01:31:33.824Z,32.67
2019-02-01T01:32:33.455Z,32.57
2019-02-01T01:33:33.405Z,32.57
2019-02-01T01:34:33.355Z,32.67
2019-02-01T01:35:33.305Z,32.57
2019-02-01T01:36:33.253Z,32.67
2019-02-01T01:37:33.203Z,32.57
2019-02-01T01:38:33.151Z,32.67
2019-02-01T01:39:33.101Z,32.76
2019-02-01T01:40:33.050Z,32.67
2019-02-01T01:41:33.000Z,32.67
2019-02-01T01:42:32.950Z,32.67
2019-02-01T01:43:32.898Z,32.57
2019-02-01T01:44:32.848Z,32.57
2019-02-01T01:45:32.798Z,32.57
2019-02-01T01:46:32.747Z,32.57
2019-02-01T01:47:32.695Z,32.57
2019-02-01T01:48:35.261Z,32.67
2019-02-01T01:49:32.682Z,32.28
2019-02-01T01:50:32.545Z,32.47
2019-02-01T01:51:32.495Z,33.04
2019-02-01T01:52:32.443Z,32.76
2019-02-01T01:53:32.392Z,32.38
2019-02-01T01:54:32.342Z,32.38
2019-02-01T01:55:32.290Z,32.47
2019-02-01T01:56:32.240Z,32.38
2019-02-01T01:57:32.190Z,32.38
2019-02-01T01:58:32.139Z,32.47
2019-02-01T01:59:32.088Z,32.47
2019-02-01T02:00:32.038Z,32.47
2019-02-01T02:01:31.987Z,32.95
2019-02-01T02:02:31.937Z,32.38
2019-02-01T02:03:31.885Z,32.38
2019-02-01T02:04:31.836Z,32.38
2019-02-01T02:05:31.784Z,32.28
2019-02-01T02:06:31.734Z,32.38
2019-02-01T02:07:31.684Z,32.28
2019-02-01T02:08:31.632Z,32.47
2019-02-01T02:09:31.581Z,32.47
2019-02-01T02:10:31.707Z,32.47
2019-02-01T02:11:31.486Z,32.38
2019-02-01T02:12:31.430Z,32.47
2019-02-01T02:13:31.378Z,32.38
2019-02-01T02:14:31.329Z,32.38
2019-02-01T02:15:31.278Z,32.38
2019-02-01T02:16:31.227Z,32.57
2019-02-01T02:17:31.176Z,32.47
2019-02-01T02:18:31.126Z,32.38
2019-02-01T02:19:31.075Z,32.47
2019-02-01T02:20:31.023Z,32.47
2019-02-01T02:21:30.974Z,32.18
2019-02-01T02:22:30.923Z,32.18
2019-02-01T02:23:30.872Z,32.28
2019-02-01T02:24:30.822Z,32.18
2019-02-01T02:25:30.771Z,32.38
2019-02-01T02:26:30.719Z,32.28
2019-02-01T02:27:30.669Z,32.18
2019-02-01T02:28:30.620Z,32.18
2019-02-01T02:29:30.619Z,32.38
2019-02-01T02:30:30.519Z,32.38
2019-02-01T02:31:30.472Z,32.18
2019-02-01T02:32:30.418Z,32.28
2019-02-01T02:33:30.366Z,32.28
2019-02-01T02:34:30.316Z,32.17
2019-02-01T02:35:30.275Z,32.09
2019-02-01T02:36:30.215Z,32.18
2019-02-01T02:37:30.170Z,32.18
2019-02-01T02:38:30.114Z,32.09
2019-02-01T02:39:30.061Z,32.18
2019-02-01T02:40:30.014Z,32.18
2019-02-01T02:41:29.960Z,32.18
2019-02-01T02:42:29.910Z,32.18
2019-02-01T02:43:29.884Z,32.28
2019-02-01T02:44:30.125Z,32.18
2019-02-01T02:45:29.758Z,32.09
2019-02-01T02:46:29.710Z,32.09
2019-02-01T02:47:29.656Z,32.18
2019-02-01T02:48:29.665Z,32.18
2019-02-01T02:49:29.605Z,32.18
2019-02-01T02:50:29.504Z,32.18
2019-02-01T02:51:29.453Z,32.09
2019-02-01T02:52:29.444Z,31.99
2019-02-01T02:53:29.357Z,32.09
2019-02-01T02:54:29.303Z,32.09
2019-02-01T02:55:29.252Z,32.09
2019-02-01T02:56:29.199Z,31.99
2019-02-01T02:57:29.150Z,31.80
2019-02-01T02:58:29.102Z,31.80
2019-02-01T02:59:29.046Z,31.80
2019-02-01T03:00:28.997Z,31.80
2019-02-01T03:01:28.947Z,31.90
2019-02-01T03:02:28.897Z,31.80
2019-02-01T03:03:28.844Z,31.90
2019-02-01T03:04:28.796Z,31.90
2019-02-01T03:05:28.745Z,31.88
2019-02-01T03:06:28.693Z,31.80
2019-02-01T03:07:28.642Z,31.99
2019-02-01T03:08:28.642Z,31.99
2019-02-01T03:09:28.544Z,31.99
2019-02-01T03:10:28.492Z,31.90
2019-02-01T03:11:28.440Z,31.99
2019-02-01T03:12:28.389Z,31.90
2019-02-01T03:13:28.338Z,32.09
2019-02-01T03:14:28.290Z,31.99
2019-02-01T03:15:28.236Z,31.80
2019-02-01T03:16:28.186Z,31.90
2019-02-01T03:17:28.135Z,31.90
2019-02-01T03:18:28.085Z,31.90
2019-02-01T03:19:28.034Z,31.90
2019-02-01T03:20:27.983Z,31.99
2019-02-01T03:21:27.934Z,31.80
2019-02-01T03:22:27.882Z,31.90
2019-02-01T03:23:27.830Z,31.90
2019-02-01T03:24:27.785Z,31.90
2019-02-01T03:25:27.730Z,31.80
2019-02-01T03:26:27.680Z,31.90
2019-02-01T03:27:27.628Z,31.71
2019-02-01T03:28:27.576Z,31.80
2019-02-01T03:29:27.577Z,31.99
2019-02-01T03:30:27.478Z,31.99
2019-02-01T03:31:27.429Z,31.90
2019-02-01T03:32:27.387Z,31.99
2019-02-01T03:33:27.742Z,31.90
2019-02-01T03:34:27.274Z,31.80
2019-02-01T03:35:27.223Z,32.09
2019-02-01T03:36:27.176Z,31.99
2019-02-01T03:37:27.122Z,31.80
2019-02-01T03:38:27.078Z,32.07
2019-02-01T03:39:27.019Z,31.90
2019-02-01T03:40:26.970Z,31.99
2019-02-01T03:41:26.919Z,31.99
2019-02-01T03:42:26.868Z,31.99
2019-02-01T03:43:26.817Z,31.71
2019-02-01T03:44:26.769Z,32.09
2019-02-01T03:45:26.716Z,31.99
2019-02-01T03:46:26.666Z,31.99
2019-02-01T03:47:26.612Z,31.80
2019-02-01T03:48:26.563Z,31.90
2019-02-01T03:49:26.512Z,31.90
2019-02-01T03:50:26.467Z,31.71
2019-02-01T03:51:26.412Z,31.71
2019-02-01T03:52:26.359Z,31.99
2019-02-01T03:53:26.313Z,31.99
2019-02-01T03:54:26.258Z,31.80
2019-02-01T03:55:26.207Z,31.99
2019-02-01T03:56:26.157Z,31.99
2019-02-01T03:57:26.107Z,31.90
2019-02-01T03:58:26.056Z,31.99
2019-02-01T03:59:26.005Z,31.71
2019-02-01T04:00:25.967Z,31.99
2019-02-01T04:01:25.904Z,31.90
2019-02-01T04:02:25.888Z,31.71
2019-02-01T04:03:25.802Z,31.99
2019-02-01T04:04:25.752Z,31.90
2019-02-01T04:05:25.701Z,31.99
2019-02-01T04:06:25.654Z,31.99
2019-02-01T04:07:25.599Z,31.90
2019-02-01T04:08:25.599Z,31.99
2019-02-01T04:09:25.501Z,31.99
2019-02-01T04:10:25.473Z,31.90
2019-02-01T04:11:25.397Z,31.90
2019-02-01T04:12:25.346Z,31.99
2019-02-01T04:13:25.297Z,31.99
2019-02-01T04:14:25.247Z,31.71
2019-02-01T04:15:25.196Z,31.61
2019-02-01T04:16:25.143Z,31.80
2019-02-01T04:17:25.094Z,31.61
2019-02-01T04:18:25.042Z,31.71
2019-02-01T04:19:37.990Z,31.61
2019-02-01T04:20:24.940Z,31.71
2019-02-01T04:21:24.890Z,31.79
2019-02-01T04:22:24.848Z,31.80
2019-02-01T04:23:24.803Z,31.71
2019-02-01T04:24:24.739Z,31.80
2019-02-01T04:25:24.686Z,31.80
2019-02-01T04:26:24.638Z,31.59
2019-02-01T04:27:24.587Z,31.69
2019-02-01T04:28:24.633Z,31.71
2019-02-01T04:29:24.484Z,31.80
2019-02-01T04:30:24.435Z,31.71
2019-02-01T04:31:24.382Z,31.90
2019-02-01T04:32:24.331Z,31.80
2019-02-01T04:33:24.284Z,31.71
2019-02-01T04:34:24.229Z,31.71
2019-02-01T04:35:24.179Z,31.69
2019-02-01T04:36:24.127Z,31.90
2019-02-01T04:37:24.078Z,31.90
2019-02-01T04:38:24.026Z,31.61
2019-02-01T04:39:23.974Z,31.71
2019-02-01T04:40:23.925Z,31.90
2019-02-01T04:41:23.925Z,31.80
2019-02-01T04:42:23.826Z,31.59
2019-02-01T04:43:23.773Z,31.90
2019-02-01T04:44:23.721Z,31.79
2019-02-01T04:45:23.674Z,31.51
2019-02-01T04:46:23.620Z,31.71
2019-02-01T04:47:23.581Z,31.51
2019-02-01T04:48:23.572Z,31.61
2019-02-01T04:49:23.557Z,31.50
2019-02-01T04:50:23.424Z,31.61
2019-02-01T04:51:23.367Z,31.71
2019-02-01T04:52:23.317Z,31.80
2019-02-01T04:53:23.384Z,31.71
2019-02-01T04:54:23.216Z,31.50
2019-02-01T04:55:23.162Z,31.51
2019-02-01T04:56:23.113Z,31.51
2019-02-01T04:57:23.061Z,31.42
2019-02-01T04:58:23.018Z,31.59
2019-02-01T04:59:22.966Z,31.59
2019-02-01T05:00:22.908Z,31.59
2019-02-01T05:01:22.858Z,31.59
2019-02-01T05:02:22.808Z,31.50
2019-02-01T05:03:22.757Z,31.50
2019-02-01T05:04:22.708Z,31.50
2019-02-01T05:05:22.657Z,31.51
2019-02-01T05:06:22.614Z,31.50
2019-02-01T05:07:22.560Z,31.51
2019-02-01T05:08:22.505Z,31.51
2019-02-01T05:09:22.453Z,31.80
2019-02-01T05:10:22.402Z,31.51
2019-02-01T05:11:22.352Z,31.90
2019-02-01T05:12:22.300Z,31.51
2019-02-01T05:13:22.250Z,31.42
2019-02-01T05:14:22.199Z,31.79
2019-02-01T05:15:22.151Z,31.71
2019-02-01T05:16:22.097Z,31.71
2019-02-01T05:17:22.047Z,31.71
2019-02-01T05:18:22.107Z,31.80
2019-02-01T05:19:21.944Z,31.61
2019-02-01T05:20:21.930Z,31.80
2019-02-01T05:21:21.843Z,31.80
2019-02-01T05:22:21.793Z,31.42
2019-02-01T05:23:21.853Z,31.80
2019-02-01T05:24:21.783Z,31.71
2019-02-01T05:25:21.651Z,31.90
2019-02-01T05:26:21.589Z,31.80
2019-02-01T05:27:21.539Z,31.71
2019-02-01T05:28:21.488Z,31.88
2019-02-01T05:29:21.445Z,31.71
2019-02-01T05:30:21.395Z,31.80
2019-02-01T05:31:21.336Z,31.71
2019-02-01T05:32:21.285Z,31.80
2019-02-01T05:33:21.236Z,31.80
2019-02-01T05:34:21.185Z,31.71
2019-02-01T05:35:21.172Z,31.90
2019-02-01T05:36:21.083Z,31.80
2019-02-01T05:37:21.032Z,31.80
2019-02-01T05:38:20.982Z,31.90
2019-02-01T05:39:20.931Z,31.80
2019-02-01T05:40:20.950Z,31.71
2019-02-01T05:41:20.829Z,31.90
2019-02-01T05:42:20.779Z,31.80
2019-02-01T05:43:20.733Z,31.71
2019-02-01T05:44:20.677Z,31.80
2019-02-01T05:45:20.629Z,31.90
2019-02-01T05:46:20.578Z,31.71
2019-02-01T05:47:20.529Z,31.80
2019-02-01T05:48:20.476Z,31.71
2019-02-01T05:49:20.427Z,31.71
2019-02-01T05:50:28.767Z,31.80
2019-02-01T05:51:20.323Z,31.90
2019-02-01T05:52:20.271Z,31.51
2019-02-01T05:53:20.358Z,31.80
2019-02-01T05:54:20.170Z,31.80
2019-02-01T05:55:20.130Z,31.71
2019-02-01T05:56:20.068Z,31.80
2019-02-01T05:57:20.019Z,31.71
2019-02-01T05:58:19.971Z,31.71
2019-02-01T05:59:19.916Z,31.61
2019-02-01T06:00:19.865Z,31.71
2019-02-01T06:01:19.815Z,31.61
2019-02-01T06:02:19.765Z,31.80
2019-02-01T06:03:19.713Z,31.71
2019-02-01T06:04:19.662Z,31.71
2019-02-01T06:05:19.611Z,31.80
2019-02-01T06:06:19.611Z,31.71
2019-02-01T06:07:19.510Z,31.71
2019-02-01T06:08:21.137Z,31.71
2019-02-01T06:09:19.409Z,31.71
2019-02-01T06:10:19.358Z,31.71
2019-02-01T06:11:19.307Z,31.80
2019-02-01T06:12:19.259Z,31.71
2019-02-01T06:13:19.206Z,31.71
2019-02-01T06:14:19.156Z,31.88
2019-02-01T06:15:19.104Z,31.71
2019-02-01T06:16:19.053Z,31.71
2019-02-01T06:17:19.002Z,31.71
2019-02-01T06:18:18.952Z,31.61
2019-02-01T06:19:18.900Z,31.71
2019-02-01T06:20:18.849Z,31.80
2019-02-01T06:21:18.812Z,31.79
2019-02-01T06:22:18.750Z,31.80
2019-02-01T06:23:18.702Z,31.71
2019-02-01T06:24:18.647Z,31.80
2019-02-01T06:25:18.601Z,31.80
2019-02-01T06:26:18.597Z,31.71
2019-02-01T06:27:18.495Z,31.71
2019-02-01T06:28:18.444Z,31.61
2019-02-01T06:29:18.394Z,31.61
2019-02-01T06:30:18.344Z,31.61
2019-02-01T06:31:18.293Z,31.71
2019-02-01T06:32:18.241Z,31.71
2019-02-01T06:33:18.191Z,31.80
2019-02-01T06:34:18.141Z,31.61
2019-02-01T06:35:18.123Z,31.61
2019-02-01T06:36:18.039Z,31.90
2019-02-01T06:37:17.989Z,31.90
2019-02-01T06:38:17.938Z,31.90
2019-02-01T06:39:17.886Z,31.71
2019-02-01T06:40:17.838Z,31.80
2019-02-01T06:41:17.785Z,31.71
2019-02-01T06:42:17.735Z,31.90
2019-02-01T06:43:17.683Z,31.71
2019-02-01T06:44:17.633Z,31.80
2019-02-01T06:45:17.582Z,31.90
2019-02-01T06:46:17.532Z,31.90
2019-02-01T06:47:17.481Z,31.90
2019-02-01T06:48:17.430Z,31.71
2019-02-01T06:49:17.379Z,31.80
2019-02-01T06:50:17.331Z,31.90
2019-02-01T06:51:17.278Z,31.90
2019-02-01T06:52:17.227Z,31.71
2019-02-01T06:53:17.177Z,31.80
2019-02-01T06:54:17.127Z,31.71
2019-02-01T06:55:17.075Z,31.71
2019-02-01T06:56:17.025Z,31.61
2019-02-01T06:57:16.974Z,31.61
2019-02-01T06:58:16.923Z,31.61
2019-02-01T06:59:16.870Z,31.51
2019-02-01T07:00:16.821Z,31.80
2019-02-01T07:01:16.771Z,31.71
2019-02-01T07:02:16.720Z,31.80
2019-02-01T07:03:17.365Z,31.80
2019-02-01T07:04:16.618Z,31.80
2019-02-01T07:05:16.669Z,31.61
2019-02-01T07:06:16.568Z,31.71
2019-02-01T07:07:16.466Z,31.80
2019-02-01T07:08:16.416Z,31.80
2019-02-01T07:09:16.365Z,31.80
2019-02-01T07:10:16.315Z,31.80
2019-02-01T07:11:16.263Z,31.80
2019-02-01T07:12:16.217Z,31.51
2019-02-01T07:13:16.166Z,31.42
2019-02-01T07:14:16.112Z,31.90
2019-02-01T07:15:16.061Z,31.80
2019-02-01T07:16:16.010Z,31.51
2019-02-01T07:17:15.961Z,31.80
2019-02-01T07:18:15.910Z,31.71
2019-02-01T07:19:15.857Z,31.80
2019-02-01T07:20:15.806Z,31.80
2019-02-01T07:21:15.761Z,32.09
2019-02-01T07:22:15.756Z,32.18
2019-02-01T07:23:15.662Z,32.18
2019-02-01T07:24:15.605Z,32.67
2019-02-01T07:25:15.553Z,32.76
2019-02-01T07:26:15.504Z,32.76
2019-02-01T07:27:15.453Z,33.14
2019-02-01T07:28:15.401Z,33.43
2019-02-01T07:29:15.350Z,33.24
2019-02-01T07:30:15.320Z,33.72
2019-02-01T07:31:15.250Z,33.72
2019-02-01T07:32:15.201Z,33.72
2019-02-01T07:33:15.150Z,33.91
2019-02-01T07:34:15.301Z,34.20
2019-02-01T07:35:15.047Z,34.00
2019-02-01T07:36:14.996Z,34.10
2019-02-01T07:37:14.988Z,34.20
2019-02-01T07:38:14.896Z,34.10
2019-02-01T07:39:14.843Z,34.29
2019-02-01T07:40:14.795Z,34.39
2019-02-01T07:41:14.744Z,34.20
2019-02-01T07:42:14.694Z,34.00
2019-02-01T07:43:14.642Z,34.00
2019-02-01T07:44:14.592Z,34.10
2019-02-01T07:45:14.542Z,33.81
2019-02-01T07:46:14.491Z,33.62
2019-02-01T07:47:14.440Z,33.72
2019-02-01T07:48:14.388Z,33.72
2019-02-01T07:49:14.338Z,33.62
2019-02-01T07:50:23.554Z,33.24
2019-02-01T07:51:15.459Z,33.33
2019-02-01T07:52:14.187Z,33.43
2019-02-01T07:53:14.138Z,33.14
2019-02-01T07:54:14.137Z,33.24
2019-02-01T07:55:14.035Z,33.43
2019-02-01T07:56:14.132Z,33.24
2019-02-01T07:57:16.857Z,33.24
2019-02-01T07:58:13.888Z,33.33
2019-02-01T07:59:13.839Z,33.24
2019-02-01T08:00:13.782Z,33.04
2019-02-01T08:01:13.732Z,33.04
2019-02-01T08:02:13.681Z,32.86
2019-02-01T08:03:13.628Z,32.86
2019-02-01T08:04:13.578Z,32.86
2019-02-01T08:05:13.579Z,33.04
2019-02-01T08:06:13.478Z,33.14
2019-02-01T08:07:13.427Z,33.53
2019-02-01T08:08:13.376Z,33.14
2019-02-01T08:09:13.327Z,33.04
2019-02-01T08:10:13.329Z,32.95
2019-02-01T08:11:13.225Z,32.95
2019-02-01T08:12:13.174Z,32.93
2019-02-01T08:13:13.124Z,32.93
2019-02-01T08:14:13.075Z,32.93
2019-02-01T08:15:13.040Z,32.75
2019-02-01T08:16:12.972Z,33.03
2019-02-01T08:17:12.925Z,32.93
2019-02-01T08:18:12.875Z,32.93
2019-02-01T08:19:12.820Z,32.93
2019-02-01T08:20:12.769Z,33.03
2019-02-01T08:21:12.723Z,33.04
2019-02-01T08:22:12.669Z,32.84
2019-02-01T08:23:12.616Z,32.75
2019-02-01T08:24:12.568Z,32.84
2019-02-01T08:25:12.520Z,32.84
2019-02-01T08:26:12.466Z,32.86
2019-02-01T08:27:12.415Z,32.86
2019-02-01T08:28:12.364Z,32.95
2019-02-01T08:29:12.313Z,32.67
2019-02-01T08:30:12.264Z,32.95
2019-02-01T08:31:12.212Z,32.95
2019-02-01T08:32:12.164Z,33.14
2019-02-01T08:33:12.117Z,33.14
2019-02-01T08:34:12.061Z,32.76
2019-02-01T08:35:12.010Z,32.57
2019-02-01T08:36:11.959Z,32.38
2019-02-01T08:37:11.909Z,32.57
2019-02-01T08:38:11.859Z,32.67
2019-02-01T08:39:11.808Z,32.76
2019-02-01T08:40:11.757Z,32.86
2019-02-01T08:41:11.706Z,32.57
2019-02-01T08:42:11.656Z,32.38
2019-02-01T08:43:11.605Z,32.47
2019-02-01T08:44:14.601Z,32.76
2019-02-01T08:45:11.505Z,32.67
2019-02-01T08:46:11.454Z,32.57
2019-02-01T08:47:11.403Z,33.04
2019-02-01T08:48:11.353Z,32.76
2019-02-01T08:49:11.303Z,32.67
2019-02-01T08:50:11.254Z,32.47
2019-02-01T08:51:11.200Z,32.38
2019-02-01T08:52:11.153Z,32.76
2019-02-01T08:53:11.099Z,32.47
2019-02-01T08:54:11.049Z,32.47
2019-02-01T08:55:10.998Z,32.47
2019-02-01T08:56:10.950Z,32.47
2019-02-01T08:57:10.900Z,32.57
2019-02-01T08:58:10.847Z,32.67
2019-02-01T08:59:10.795Z,32.76
2019-02-01T09:00:10.744Z,32.76
2019-02-01T09:01:10.695Z,32.47
2019-02-01T09:02:10.645Z,32.47
2019-02-01T09:03:10.644Z,32.47
2019-02-01T09:04:10.547Z,32.76
2019-02-01T09:05:10.499Z,32.67
2019-02-01T09:06:10.444Z,32.76
2019-02-01T09:07:10.410Z,32.67
2019-02-01T09:08:10.350Z,32.76
2019-02-01T09:09:10.289Z,32.76
2019-02-01T09:10:10.239Z,32.47
2019-02-01T09:11:10.187Z,32.38
2019-02-01T09:12:10.137Z,32.46
2019-02-01T09:13:10.087Z,32.47
2019-02-01T09:14:10.036Z,32.46
2019-02-01T09:15:09.985Z,32.47
2019-02-01T09:16:09.939Z,32.47
2019-02-01T09:17:09.884Z,32.67
2019-02-01T09:18:09.835Z,32.67
2019-02-01T09:19:09.797Z,32.95
2019-02-01T09:20:09.735Z,32.38
2019-02-01T09:21:09.682Z,32.47
2019-02-01T09:22:09.630Z,32.57
2019-02-01T09:23:09.581Z,32.38
2019-02-01T09:24:09.529Z,32.38
2019-02-01T09:25:09.483Z,32.17
2019-02-01T09:26:09.470Z,32.09
2019-02-01T09:27:09.378Z,32.18
2019-02-01T09:28:09.326Z,32.28
2019-02-01T09:29:09.277Z,32.09
2019-02-01T09:30:09.226Z,32.18
2019-02-01T09:31:09.177Z,32.18
2019-02-01T09:32:09.124Z,32.18
2019-02-01T09:33:09.074Z,31.80
2019-02-01T09:34:09.025Z,31.79
2019-02-01T09:35:08.971Z,31.99
2019-02-01T09:36:08.922Z,31.80
2019-02-01T09:37:08.873Z,31.88
2019-02-01T09:38:08.821Z,32.28
2019-02-01T09:39:08.769Z,32.28
2019-02-01T09:40:08.720Z,32.18
2019-02-01T09:41:08.669Z,32.28
2019-02-01T09:42:08.619Z,32.38
2019-02-01T09:43:08.617Z,32.76
2019-02-01T09:44:08.517Z,32.47
2019-02-01T09:45:08.467Z,32.57
2019-02-01T09:46:08.418Z,32.57
2019-02-01T09:47:08.364Z,32.67
2019-02-01T09:48:08.313Z,32.67
2019-02-01T09:49:08.267Z,32.57
2019-02-01T09:50:08.213Z,33.04
2019-02-01T09:51:08.236Z,33.14
2019-02-01T09:52:08.111Z,33.04
2019-02-01T09:53:08.062Z,33.04
2019-02-01T09:54:08.011Z,33.53
2019-02-01T09:55:07.960Z,33.14
2019-02-01T09:56:07.910Z,33.24
2019-02-01T09:57:07.864Z,33.14
2019-02-01T09:58:07.812Z,33.43
2019-02-01T09:59:07.758Z,33.43
2019-02-01T10:00:07.707Z,33.24
2019-02-01T10:01:07.659Z,33.43
2019-02-01T10:02:07.607Z,33.62
2019-02-01T10:03:07.655Z,33.72
2019-02-01T10:04:07.506Z,33.24
2019-02-01T10:05:07.455Z,33.43
2019-02-01T10:06:07.406Z,33.33
2019-02-01T10:07:07.353Z,33.24
2019-02-01T10:08:07.302Z,33.43
2019-02-01T10:09:07.255Z,33.24
2019-02-01T10:10:07.207Z,33.24
2019-02-01T10:11:07.156Z,33.33
2019-02-01T10:12:07.101Z,33.33
2019-02-01T10:13:07.049Z,33.33
2019-02-01T10:14:07.001Z,33.41
2019-02-01T10:15:06.949Z,33.53
2019-02-01T10:16:06.899Z,33.53
2019-02-01T10:17:06.848Z,34.00
2019-02-01T10:18:06.803Z,33.43
2019-02-01T10:19:06.746Z,33.33
2019-02-01T10:20:06.696Z,33.33
2019-02-01T10:21:06.645Z,33.43
2019-02-01T10:22:13.318Z,33.14
2019-02-01T10:23:06.544Z,33.33
2019-02-01T10:24:06.495Z,33.33
2019-02-01T10:25:06.443Z,33.04
2019-02-01T10:26:08.391Z,33.04
2019-02-01T10:27:06.343Z,33.04
2019-02-01T10:28:06.291Z,32.67
2019-02-01T10:29:06.243Z,33.04
2019-02-01T10:30:06.191Z,32.86
2019-02-01T10:31:06.138Z,32.95
2019-02-01T10:32:06.088Z,32.47
2019-02-01T10:33:06.039Z,32.47
2019-02-01T10:34:05.987Z,32.67
2019-02-01T10:35:05.938Z,32.38
2019-02-01T10:36:05.887Z,32.47
2019-02-01T10:37:05.835Z,32.38
2019-02-01T10:38:05.790Z,32.57
2019-02-01T10:39:05.836Z,33.04
2019-02-01T10:40:05.687Z,32.67
2019-02-01T10:41:05.652Z,32.47
2019-02-01T10:42:05.585Z,33.24
2019-02-01T10:43:05.533Z,32.67
2019-02-01T10:44:05.481Z,32.47
2019-02-01T10:45:05.432Z,32.65
2019-02-01T10:46:05.381Z,32.57
2019-02-01T10:47:11.249Z,32.65
2019-02-01T10:48:05.280Z,32.65
2019-02-01T10:49:05.229Z,32.57
2019-02-01T10:50:07.392Z,32.36
2019-02-01T10:51:05.138Z,32.46
2019-02-01T10:52:05.078Z,32.46
2019-02-01T10:53:05.029Z,32.65
2019-02-01T10:54:04.978Z,32.84
2019-02-01T10:55:04.926Z,32.46
2019-02-01T10:56:04.879Z,32.36
2019-02-01T10:57:04.825Z,32.17
2019-02-01T10:58:04.802Z,32.17
2019-02-01T10:59:04.724Z,32.17
2019-02-01T11:00:04.674Z,32.55
2019-02-01T11:01:04.625Z,32.46
2019-02-01T11:02:04.577Z,32.84
2019-02-01T11:03:04.622Z,32.26
2019-02-01T11:04:04.471Z,32.46
2019-02-01T11:05:04.421Z,32.36
2019-02-01T11:06:04.370Z,32.65
2019-02-01T11:07:05.756Z,32.55
2019-02-01T11:08:04.271Z,32.55
2019-02-01T11:09:04.220Z,32.65
2019-02-01T11:10:04.169Z,32.75
2019-02-01T11:11:04.117Z,32.55
2019-02-01T11:12:04.067Z,32.36
2019-02-01T11:13:04.017Z,32.55
2019-02-01T11:14:03.965Z,32.17
2019-02-01T11:15:03.915Z,32.26
2019-02-01T11:16:03.864Z,32.26
2019-02-01T11:17:03.815Z,32.26
2019-02-01T11:18:03.764Z,32.17
2019-02-01T11:19:03.713Z,32.17
2019-02-01T11:20:03.665Z,32.18
2019-02-01T11:21:03.662Z,32.28
2019-02-01T11:22:03.565Z,32.47
2019-02-01T11:23:03.510Z,32.57
2019-02-01T11:24:03.460Z,32.47
2019-02-01T11:25:03.418Z,32.38
2019-02-01T11:26:03.360Z,32.47
2019-02-01T11:27:03.309Z,32.47
2019-02-01T11:28:03.259Z,32.46
2019-02-01T11:29:03.209Z,32.38
2019-02-01T11:30:03.157Z,32.57
2019-02-01T11:31:03.106Z,32.18
2019-02-01T11:32:03.126Z,32.28
2019-02-01T11:33:03.007Z,32.09
2019-02-01T11:34:02.956Z,32.28
2019-02-01T11:35:02.905Z,32.38
2019-02-01T11:36:02.854Z,33.24
2019-02-01T11:37:02.803Z,33.24
2019-02-01T11:38:02.753Z,33.53
2019-02-01T11:39:02.703Z,33.81
2019-02-01T11:40:02.653Z,33.81
2019-02-01T11:41:02.654Z,33.53
2019-02-01T11:42:02.602Z,33.53
2019-02-01T11:43:02.500Z,33.72
2019-02-01T11:44:02.451Z,33.72
2019-02-01T11:45:02.401Z,33.91
2019-02-01T11:46:02.350Z,34.20
2019-02-01T11:47:02.299Z,34.10
2019-02-01T11:48:02.250Z,34.29
2019-02-01T11:49:02.199Z,34.39
2019-02-01T11:50:03.152Z,34.20
2019-02-01T11:51:02.096Z,34.00
2019-02-01T11:52:02.046Z,34.20
2019-02-01T11:53:01.995Z,34.29
2019-02-01T11:54:01.946Z,34.10
2019-02-01T11:55:01.897Z,33.81
2019-02-01T11:56:02.163Z,33.91
2019-02-01T11:57:01.801Z,33.81
2019-02-01T11:58:01.743Z,33.91
2019-02-01T11:59:08.083Z,33.81
2019-02-01T12:00:01.646Z,33.81
2019-02-01T12:01:01.643Z,33.81
2019-02-01T12:02:01.600Z,33.62
2019-02-01T12:03:01.491Z,33.81
2019-02-01T12:04:01.444Z,33.72
2019-02-01T12:05:01.391Z,33.62
2019-02-01T12:06:01.341Z,33.81
2019-02-01T12:07:01.288Z,33.72
2019-02-01T12:08:01.241Z,33.81
2019-02-01T12:09:01.194Z,33.62
2019-02-01T12:10:01.140Z,33.91
2019-02-01T12:11:01.088Z,33.72
2019-02-01T12:12:01.037Z,33.43
2019-02-01T12:13:00.986Z,33.14
2019-02-01T12:14:00.937Z,33.53
2019-02-01T12:15:00.886Z,33.14
2019-02-01T12:16:00.836Z,33.33
2019-02-01T12:17:00.786Z,33.04
2019-02-01T12:18:00.736Z,33.14
2019-02-01T12:19:00.785Z,33.14
2019-02-01T12:20:00.831Z,32.95
2019-02-01T12:21:00.839Z,33.04
2019-02-01T12:22:00.532Z,32.67
2019-02-01T12:23:01.129Z,32.86
2019-02-01T12:24:00.432Z,33.14
2019-02-01T12:25:00.435Z,33.04
2019-02-01T12:26:00.332Z,32.76
2019-02-01T12:27:01.538Z,32.38
2019-02-01T12:28:00.233Z,32.47
2019-02-01T12:29:00.180Z,32.47
2019-02-01T12:30:00.228Z,32.47
2019-02-01T12:31:00.082Z,32.47
2019-02-01T12:32:00.029Z,32.76
2019-02-01T12:32:59.979Z,32.57
2019-02-01T12:33:59.928Z,32.67
2019-02-01T12:34:59.877Z,32.57
2019-02-01T12:35:59.828Z,32.57
2019-02-01T12:37:03.397Z,32.57
2019-02-01T12:37:59.726Z,32.38
2019-02-01T12:38:59.675Z,32.38
2019-02-01T12:39:59.624Z,32.38
2019-02-01T12:40:59.575Z,32.28
2019-02-01T12:41:59.530Z,32.38
2019-02-01T12:42:59.476Z,32.28
2019-02-01T12:43:59.425Z,32.57
2019-02-01T12:44:59.373Z,32.57
2019-02-01T12:45:59.323Z,32.38
2019-02-01T12:46:59.272Z,32.18
2019-02-01T12:48:00.751Z,32.28
2019-02-01T12:48:59.175Z,32.28
2019-02-01T12:49:59.120Z,32.38
2019-02-01T12:50:59.070Z,32.18
2019-02-01T12:51:59.020Z,32.28